createdAt,value
2023-01-26T00:01:21.748Z,91.63
2023-01-26T00:03:49.646Z,91.65
2023-01-26T00:06:18.781Z,91.41
2023-01-26T00:08:47.292Z,90.91
2023-01-26T00:11:16.559Z,90.99
2023-01-26T00:13:44.021Z,91.04
2023-01-26T00:16:13.149Z,91.79
2023-01-26T00:18:42.688Z,91.96
2023-01-26T00:21:12.979Z,92.28
2023-01-26T00:23:40.472Z,91.21
2023-01-26T00:26:08.344Z,91.35
2023-01-26T00:28:35.743Z,91.60
2023-01-26T00:31:04.496Z,91.87
2023-01-26T00:33:32.261Z,91.53
2023-01-26T00:36:01.209Z,90.74
2023-01-26T00:38:28.612Z,91.02
2023-01-26T00:40:56.045Z,91.00
2023-01-26T00:43:23.413Z,91.19
2023-01-26T00:45:50.835Z,90.92
2023-01-26T00:48:18.298Z,90.91
2023-01-26T00:50:45.731Z,91.40
2023-01-26T00:53:14.520Z,90.91
2023-01-26T00:55:41.918Z,90.71
2023-01-26T00:58:10.057Z,91.39
2023-01-26T01:00:39.100Z,90.76
2023-01-26T01:03:07.085Z,91.12
2023-01-26T01:05:35.191Z,90.91
2023-01-26T01:08:03.109Z,91.19
2023-01-26T01:10:31.848Z,91.91
2023-01-26T01:12:59.227Z,91.54
2023-01-26T01:15:26.590Z,92.29
2023-01-26T01:17:53.950Z,92.52
2023-01-26T01:20:21.557Z,92.12
2023-01-26T01:22:48.933Z,91.97
2023-01-26T01:25:16.481Z,91.88
2023-01-26T01:27:45.263Z,91.30
2023-01-26T01:30:14.453Z,91.64
2023-01-26T01:32:42.120Z,92.01
2023-01-26T01:35:10.081Z,92.38
2023-01-26T01:37:37.651Z,92.13
2023-01-26T01:40:05.712Z,91.91
2023-01-26T01:42:34.724Z,92.05
2023-01-26T01:45:47.724Z,92.04
2023-01-26T01:48:21.806Z,91.94
2023-01-26T01:50:50.792Z,91.34
2023-01-26T01:53:24.441Z,91.99
2023-01-26T01:55:54.224Z,92.46
2023-01-26T01:58:21.764Z,93.30
2023-01-26T02:00:49.376Z,93.69
2023-01-26T02:03:21.155Z,92.94
2023-01-26T02:05:54.474Z,93.08
2023-01-26T02:08:25.550Z,93.14
2023-01-26T02:10:55.810Z,93.17
2023-01-26T02:13:23.994Z,93.36
2023-01-26T02:15:52.240Z,92.67
2023-01-26T02:18:21.521Z,92.53
2023-01-26T02:20:51.929Z,91.83
2023-01-26T02:23:26.222Z,92.08
2023-01-26T02:26:09.140Z,91.94
2023-01-26T02:28:36.557Z,91.63
2023-01-26T02:31:04.753Z,92.15
2023-01-26T02:33:33.518Z,91.82
2023-01-26T02:36:02.641Z,91.89
2023-01-26T02:38:34.022Z,91.21
2023-01-26T02:41:03.923Z,91.81
2023-01-26T02:43:32.094Z,92.24
2023-01-26T02:45:59.873Z,92.14
2023-01-26T02:48:45.097Z,92.50
2023-01-26T02:51:12.627Z,92.30
2023-01-26T02:53:40.068Z,91.73
2023-01-26T02:56:07.006Z,91.80
2023-01-26T02:58:36.229Z,91.60
2023-01-26T03:01:03.699Z,91.65
2023-01-26T03:03:42.375Z,91.65
2023-01-26T03:06:10.575Z,91.59
2023-01-26T03:08:38.245Z,92.76
2023-01-26T03:11:06.745Z,92.01
2023-01-26T03:13:35.716Z,91.77
2023-01-26T03:16:06.936Z,91.31
2023-01-26T03:18:53.001Z,91.53
2023-01-26T03:21:37.751Z,91.84
2023-01-26T03:24:23.648Z,91.87
2023-01-26T03:27:16.799Z,91.71
2023-01-26T03:29:45.942Z,92.09
2023-01-26T03:32:13.742Z,92.06
2023-01-26T03:34:41.189Z,92.17
2023-01-26T03:37:08.586Z,92.17
2023-01-26T03:39:53.362Z,92.53
2023-01-26T03:42:38.637Z,92.02
2023-01-26T03:45:26.324Z,92.96
2023-01-26T03:48:11.158Z,92.93
2023-01-26T03:50:55.890Z,93.62
2023-01-26T03:53:42.549Z,93.59
2023-01-26T03:56:22.124Z,92.55
2023-01-26T03:58:52.253Z,93.24
2023-01-26T04:01:25.919Z,92.51
2023-01-26T04:04:11.565Z,92.38
2023-01-26T04:06:57.726Z,92.70
2023-01-26T04:09:25.440Z,92.16
2023-01-26T04:11:52.811Z,92.31
2023-01-26T04:14:49.650Z,92.59
2023-01-26T04:17:37.320Z,92.41
2023-01-26T04:20:23.707Z,92.48
2023-01-26T04:22:51.067Z,92.89
2023-01-26T04:25:19.949Z,92.96
2023-01-26T04:27:47.398Z,92.73
2023-01-26T04:30:16.406Z,92.42
2023-01-26T04:32:47.109Z,92.76
2023-01-26T04:35:14.525Z,91.65
2023-01-26T04:37:41.927Z,91.94
2023-01-26T04:40:10.968Z,92.34
2023-01-26T04:42:38.814Z,92.05
2023-01-26T04:45:06.909Z,92.82
2023-01-26T04:47:34.370Z,92.85
2023-01-26T04:50:03.162Z,92.41
2023-01-26T04:52:30.534Z,92.12
2023-01-26T04:54:57.893Z,91.58
2023-01-26T04:57:25.290Z,92.33
2023-01-26T04:59:54.814Z,93.46
2023-01-26T05:02:22.188Z,92.90
2023-01-26T05:04:49.599Z,92.79
2023-01-26T05:07:18.309Z,92.21
2023-01-26T05:09:45.690Z,92.39
2023-01-26T05:12:30.451Z,92.79
2023-01-26T05:14:57.826Z,93.03
2023-01-26T05:17:25.253Z,93.15
2023-01-26T05:19:52.613Z,92.80
2023-01-26T05:22:21.390Z,92.28
2023-01-26T05:24:48.789Z,92.80
2023-01-26T05:27:22.066Z,93.16
2023-01-26T05:29:49.894Z,92.32
2023-01-26T05:32:17.457Z,92.77
2023-01-26T05:34:44.863Z,93.19
2023-01-26T05:37:14.640Z,92.43
2023-01-26T05:39:43.789Z,92.64
2023-01-26T05:42:12.040Z,92.57
2023-01-26T05:44:39.787Z,92.51
2023-01-26T05:47:07.573Z,91.81
2023-01-26T05:49:35.030Z,91.56
2023-01-26T05:52:02.446Z,91.64
2023-01-26T05:54:29.838Z,91.63
2023-01-26T05:56:58.541Z,91.94
2023-01-26T05:59:26.008Z,91.99
2023-01-26T06:01:53.461Z,91.53
2023-01-26T06:04:21.211Z,92.33
2023-01-26T06:06:48.770Z,92.18
2023-01-26T06:09:16.557Z,92.61
2023-01-26T06:11:44.019Z,93.04
2023-01-26T06:14:12.788Z,93.68
2023-01-26T06:16:40.481Z,93.21
2023-01-26T06:19:08.622Z,92.27
2023-01-26T06:21:36.078Z,92.31
2023-01-26T06:24:03.763Z,93.32
2023-01-26T06:26:39.350Z,93.03
2023-01-26T06:29:07.276Z,92.39
2023-01-26T06:31:37.344Z,93.13
2023-01-26T06:34:05.664Z,93.08
2023-01-26T06:36:33.122Z,92.53
2023-01-26T06:39:00.947Z,92.23
2023-01-26T06:41:28.451Z,92.17
2023-01-26T06:43:55.864Z,91.78
2023-01-26T06:46:23.300Z,92.02
2023-01-26T06:48:52.071Z,93.10
2023-01-26T06:51:45.711Z,92.41
2023-01-26T06:54:14.231Z,93.74
2023-01-26T06:56:42.113Z,94.22
2023-01-26T06:59:10.719Z,93.79
2023-01-26T07:01:42.521Z,92.90
2023-01-26T07:04:11.557Z,92.92
2023-01-26T07:06:39.110Z,93.37
2023-01-26T07:09:06.509Z,93.02
2023-01-26T07:11:33.914Z,92.26
2023-01-26T07:14:01.289Z,93.01
2023-01-26T07:16:28.919Z,92.66
2023-01-26T07:18:56.948Z,92.47
2023-01-26T07:21:25.634Z,92.38
2023-01-26T07:23:54.088Z,92.76
2023-01-26T07:26:21.777Z,92.46
2023-01-26T07:28:49.164Z,92.90
2023-01-26T07:31:16.714Z,91.95
2023-01-26T07:33:44.563Z,92.76
2023-01-26T07:36:12.007Z,92.49
2023-01-26T07:38:40.713Z,91.90
2023-01-26T07:41:09.965Z,93.11
2023-01-26T07:43:38.445Z,92.43
2023-01-26T07:46:06.553Z,92.96
2023-01-26T07:48:34.211Z,93.03
2023-01-26T07:51:03.451Z,92.93
2023-01-26T07:53:34.253Z,92.86
2023-01-26T07:56:14.372Z,93.89
2023-01-26T07:58:41.888Z,92.72
2023-01-26T08:01:10.955Z,93.37
2023-01-26T08:03:38.903Z,93.61
2023-01-26T08:06:06.974Z,93.26
2023-01-26T08:08:34.581Z,94.31
2023-01-26T08:11:02.673Z,93.53
2023-01-26T08:13:35.779Z,93.90
2023-01-26T08:16:05.404Z,93.95
2023-01-26T08:18:32.906Z,93.82
2023-01-26T08:21:00.442Z,93.58
2023-01-26T08:23:28.090Z,93.41
2023-01-26T08:25:55.544Z,92.85
2023-01-26T08:28:23.343Z,93.66
2023-01-26T08:30:52.127Z,93.43
2023-01-26T08:33:19.554Z,92.96
2023-01-26T08:35:46.935Z,93.71
2023-01-26T08:38:14.291Z,93.44
2023-01-26T08:40:42.332Z,92.74
2023-01-26T08:43:09.690Z,93.59
2023-01-26T08:45:37.107Z,93.06
2023-01-26T08:48:06.864Z,92.81
2023-01-26T08:50:34.194Z,93.42
2023-01-26T08:53:01.590Z,93.99
2023-01-26T08:55:29.610Z,93.21
2023-01-26T08:57:57.552Z,93.89
2023-01-26T09:00:25.649Z,94.98
2023-01-26T09:02:59.493Z,94.59
2023-01-26T09:05:28.826Z,94.48
2023-01-26T09:07:56.240Z,94.71
2023-01-26T09:10:23.673Z,94.96
2023-01-26T09:12:51.310Z,94.38
2023-01-26T09:15:18.687Z,94.29
2023-01-26T09:17:49.163Z,94.45
2023-01-26T09:20:16.835Z,93.95
2023-01-26T09:22:45.775Z,94.51
2023-01-26T09:25:13.681Z,93.90
2023-01-26T09:27:41.368Z,93.65
2023-01-26T09:30:10.146Z,94.04
2023-01-26T09:32:37.683Z,93.58
2023-01-26T09:35:05.813Z,93.91
2023-01-26T09:37:33.159Z,94.54
2023-01-26T09:40:01.874Z,94.39
2023-01-26T09:42:50.858Z,94.29
2023-01-26T09:45:25.551Z,94.43
2023-01-26T09:48:03.035Z,94.37
2023-01-26T09:50:32.586Z,93.79
2023-01-26T09:53:03.857Z,94.26
2023-01-26T09:55:32.557Z,94.88
2023-01-26T09:58:02.063Z,95.54
2023-01-26T10:00:32.242Z,95.21
2023-01-26T10:03:14.863Z,95.08
2023-01-26T10:05:46.565Z,95.17
2023-01-26T10:08:15.964Z,95.26
2023-01-26T10:10:49.278Z,95.69
2023-01-26T10:13:17.350Z,95.55
2023-01-26T10:15:46.744Z,95.26
2023-01-26T10:18:18.845Z,95.94
2023-01-26T10:20:49.013Z,95.75
2023-01-26T10:23:18.497Z,95.91
2023-01-26T10:25:47.789Z,95.74
2023-01-26T10:28:16.633Z,95.14
2023-01-26T10:30:45.863Z,95.34
2023-01-26T10:33:21.525Z,95.71
2023-01-26T10:35:48.923Z,95.62
2023-01-26T10:38:41.191Z,95.18
2023-01-26T10:41:23.214Z,95.02
2023-01-26T10:43:53.041Z,96.01
2023-01-26T10:46:26.163Z,94.93
2023-01-26T10:48:54.255Z,94.94
2023-01-26T10:51:26.325Z,95.26
2023-01-26T10:54:21.430Z,96.40
2023-01-26T10:56:52.510Z,96.12
2023-01-26T10:59:26.450Z,96.37
2023-01-26T11:01:55.856Z,95.56
2023-01-26T11:04:23.545Z,96.33
2023-01-26T11:06:51.150Z,95.48
2023-01-26T11:09:20.843Z,96.31
2023-01-26T11:12:03.676Z,97.16
2023-01-26T11:14:32.342Z,97.74
2023-01-26T11:17:06.106Z,98.13
2023-01-26T11:19:52.104Z,97.96
2023-01-26T11:22:21.809Z,97.28
2023-01-26T11:24:52.798Z,96.38
2023-01-26T11:27:29.798Z,96.48
2023-01-26T11:30:16.938Z,98.11
2023-01-26T11:32:48.404Z,98.36
2023-01-26T11:35:31.010Z,98.34
2023-01-26T11:38:04.573Z,98.93
2023-01-26T11:40:37.816Z,99.13
2023-01-26T11:43:34.745Z,99.29
2023-01-26T11:46:08.993Z,98.74
2023-01-26T11:48:45.053Z,98.57
2023-01-26T11:51:17.339Z,99.04
2023-01-26T11:54:02.703Z,98.22
2023-01-26T11:56:38.240Z,98.97
2023-01-26T11:59:11.173Z,99.17
2023-01-26T12:01:41.206Z,99.28
2023-01-26T12:04:15.976Z,99.59
2023-01-26T12:06:45.494Z,99.96
2023-01-26T12:09:18.866Z,99.81
2023-01-26T12:11:51.114Z,99.62
2023-01-26T12:14:23.498Z,100.00
2023-01-26T12:17:16.839Z,100.00
2023-01-26T12:19:50.320Z,99.78
2023-01-26T12:22:21.841Z,99.82
2023-01-26T12:25:17.382Z,100.00
2023-01-26T12:27:44.431Z,100.00
2023-01-26T12:30:25.715Z,100.00
2023-01-26T12:32:53.570Z,99.85
2023-01-26T12:35:29.413Z,100.00
2023-01-26T12:38:16.710Z,100.00
2023-01-26T12:40:53.153Z,100.00
2023-01-26T12:43:26.955Z,100.00
2023-01-26T12:45:58.650Z,100.00
2023-01-26T12:48:34.428Z,100.00
2023-01-26T12:51:05.451Z,100.00
2023-01-26T12:53:37.930Z,100.00
2023-01-26T12:56:11.190Z,100.00
2023-01-26T12:58:40.418Z,100.00
2023-01-26T13:01:13.328Z,100.00
2023-01-26T13:03:42.099Z,100.00
2023-01-26T13:06:20.827Z,100.00
2023-01-26T13:08:53.642Z,100.00
2023-01-26T13:11:46.717Z,100.00
2023-01-26T13:14:31.789Z,100.00
2023-01-26T13:17:42.364Z,100.00
2023-01-26T13:20:41.180Z,100.00
2023-01-26T13:23:52.404Z,100.00
2023-01-26T13:26:44.535Z,100.00
2023-01-26T13:29:31.650Z,100.00
2023-01-26T13:32:02.588Z,100.00
2023-01-26T13:34:33.405Z,100.00
2023-01-26T13:37:06.083Z,100.00
2023-01-26T13:39:36.353Z,100.00
2023-01-26T13:42:11.406Z,100.00
2023-01-26T13:44:41.428Z,100.00
2023-01-26T13:47:12.989Z,100.00
2023-01-26T13:49:41.685Z,100.00
2023-01-26T13:52:17.697Z,100.00
2023-01-26T13:54:45.580Z,100.00
2023-01-26T13:57:14.282Z,100.00
2023-01-26T13:59:50.181Z,100.00
2023-01-26T14:02:27.151Z,100.00
2023-01-26T14:04:57.902Z,100.00
2023-01-26T14:07:27.668Z,100.00
2023-01-26T14:09:56.978Z,100.00
2023-01-26T14:12:25.686Z,100.00
2023-01-26T14:14:54.846Z,100.00
2023-01-26T14:17:29.184Z,100.00
2023-01-26T14:19:57.053Z,100.00
2023-01-26T14:22:24.942Z,100.00
2023-01-26T14:24:53.475Z,100.00
2023-01-26T14:27:30.816Z,100.00
2023-01-26T14:29:59.074Z,100.00
2023-01-26T14:32:29.695Z,100.00
2023-01-26T14:34:58.837Z,100.00
2023-01-26T14:37:26.752Z,100.00
2023-01-26T14:40:19.526Z,100.00
2023-01-26T14:42:47.374Z,100.00
2023-01-26T14:45:15.110Z,100.00
2023-01-26T14:47:45.200Z,100.00
2023-01-26T14:50:15.704Z,100.00
2023-01-26T14:52:45.920Z,100.00
2023-01-26T14:55:17.725Z,100.00
2023-01-26T14:57:45.076Z,100.00
2023-01-26T15:00:22.459Z,100.00
2023-01-26T15:02:53.546Z,100.00
2023-01-26T15:05:22.987Z,100.00
2023-01-26T15:07:52.567Z,100.00
2023-01-26T15:10:29.421Z,100.00
2023-01-26T15:12:58.996Z,100.00
2023-01-26T15:15:28.969Z,100.00
2023-01-26T15:18:06.726Z,100.00
2023-01-26T15:20:39.392Z,100.00
2023-01-26T15:23:21.341Z,100.00
2023-01-26T15:25:48.751Z,100.00
2023-01-26T15:28:18.425Z,100.00
2023-01-26T15:30:48.950Z,100.00
2023-01-26T15:33:40.434Z,100.00
2023-01-26T15:36:27.806Z,100.00
2023-01-26T15:39:00.966Z,100.00
2023-01-26T15:41:28.935Z,100.00
2023-01-26T15:43:56.308Z,100.00
2023-01-26T15:46:23.838Z,100.00
2023-01-26T15:48:52.728Z,100.00
2023-01-26T15:51:20.199Z,100.00
2023-01-26T15:53:47.574Z,100.00
2023-01-26T15:56:16.492Z,100.00
2023-01-26T15:58:44.284Z,100.00
2023-01-26T16:01:15.748Z,100.00
2023-01-26T16:03:43.135Z,100.00
2023-01-26T16:06:22.370Z,100.00
2023-01-26T16:08:50.035Z,100.00
2023-01-26T16:11:18.011Z,100.00
2023-01-26T16:13:57.300Z,100.00
2023-01-26T16:16:30.071Z,100.00
2023-01-26T16:18:57.601Z,100.00
2023-01-26T16:21:28.680Z,100.00
2023-01-26T16:23:56.068Z,100.00
2023-01-26T16:26:23.633Z,100.00
2023-01-26T16:28:50.984Z,100.00
2023-01-26T16:31:20.578Z,100.00
2023-01-26T16:33:48.644Z,100.00
2023-01-26T16:36:17.109Z,100.00
2023-01-26T16:38:46.669Z,100.00
2023-01-26T16:41:16.473Z,100.00
2023-01-26T16:43:44.114Z,100.00
2023-01-26T16:46:11.931Z,100.00
2023-01-26T16:48:40.320Z,100.00
2023-01-26T16:51:17.989Z,100.00
2023-01-26T16:53:47.192Z,100.00
2023-01-26T16:56:16.417Z,100.00
2023-01-26T16:58:43.858Z,100.00
2023-01-26T17:01:18.292Z,100.00
2023-01-26T17:03:45.914Z,100.00
2023-01-26T17:06:13.383Z,100.00
2023-01-26T17:08:41.189Z,100.00
2023-01-26T17:11:13.976Z,100.00
2023-01-26T17:13:41.295Z,100.00
2023-01-26T17:16:12.565Z,100.00
2023-01-26T17:18:39.978Z,100.00
2023-01-26T17:21:07.481Z,100.00
2023-01-26T17:23:37.293Z,100.00
2023-01-26T17:26:04.953Z,100.00
2023-01-26T17:28:33.656Z,100.00
2023-01-26T17:31:01.610Z,100.00
2023-01-26T17:33:29.591Z,100.00
2023-01-26T17:36:00.574Z,100.00
2023-01-26T17:38:28.078Z,100.00
2023-01-26T17:40:56.469Z,100.00
2023-01-26T17:43:24.109Z,100.00
2023-01-26T17:46:01.912Z,100.00
2023-01-26T17:48:29.875Z,100.00
2023-01-26T17:50:57.710Z,100.00
2023-01-26T17:53:25.395Z,100.00
2023-01-26T17:55:53.203Z,100.00
2023-01-26T17:58:20.612Z,100.00
2023-01-26T18:00:48.129Z,100.00
2023-01-26T18:03:17.387Z,100.00
2023-01-26T18:05:51.499Z,100.00
2023-01-26T18:08:19.410Z,100.00
2023-01-26T18:10:47.108Z,100.00
2023-01-26T18:13:15.162Z,100.00
2023-01-26T18:15:52.304Z,100.00
2023-01-26T18:18:21.598Z,100.00
2023-01-26T18:20:49.115Z,100.00
2023-01-26T18:23:16.516Z,100.00
2023-01-26T18:25:44.313Z,100.00
2023-01-26T18:28:11.710Z,100.00
2023-01-26T18:30:40.129Z,100.00
2023-01-26T18:33:08.387Z,100.00
2023-01-26T18:35:37.238Z,100.00
2023-01-26T18:38:04.735Z,100.00
2023-01-26T18:40:32.186Z,100.00
2023-01-26T18:42:59.662Z,100.00
2023-01-26T18:45:27.206Z,100.00
2023-01-26T18:47:54.651Z,100.00
2023-01-26T18:50:22.193Z,100.00
2023-01-26T18:52:52.276Z,100.00
2023-01-26T18:55:20.194Z,100.00
2023-01-26T18:57:49.311Z,100.00
2023-01-26T19:00:17.469Z,100.00
2023-01-26T19:02:44.991Z,100.00
2023-01-26T19:05:12.867Z,100.00
2023-01-26T19:07:41.140Z,100.00
2023-01-26T19:10:11.238Z,100.00
2023-01-26T19:12:38.573Z,100.00
2023-01-26T19:15:07.501Z,100.00
2023-01-26T19:17:35.053Z,100.00
2023-01-26T19:20:02.646Z,100.00
2023-01-26T19:22:30.037Z,100.00
2023-01-26T19:24:58.035Z,100.00
2023-01-26T19:27:26.753Z,100.00
2023-01-26T19:29:54.308Z,100.00
2023-01-26T19:32:21.650Z,100.00
2023-01-26T19:34:49.035Z,100.00
2023-01-26T19:37:16.560Z,100.00
2023-01-26T19:39:43.901Z,100.00
2023-01-26T19:42:11.258Z,100.00
2023-01-26T19:44:39.921Z,100.00
2023-01-26T19:47:07.331Z,100.00
2023-01-26T19:49:34.688Z,100.00
2023-01-26T19:52:04.275Z,100.00
2023-01-26T19:54:31.670Z,100.00
2023-01-26T19:56:59.026Z,100.00
2023-01-26T19:59:27.293Z,100.00
2023-01-26T20:01:56.547Z,100.00
2023-01-26T20:04:23.964Z,100.00
2023-01-26T20:06:51.412Z,100.00
2023-01-26T20:09:18.759Z,100.00
2023-01-26T20:11:46.227Z,100.00
2023-01-26T20:14:13.610Z,100.00
2023-01-26T20:16:41.796Z,100.00
2023-01-26T20:19:11.915Z,100.00
2023-01-26T20:21:40.226Z,100.00
2023-01-26T20:24:09.128Z,100.00
2023-01-26T20:26:37.181Z,100.00
2023-01-26T20:29:04.686Z,100.00
2023-01-26T20:31:32.961Z,100.00
2023-01-26T20:34:03.088Z,100.00
2023-01-26T20:36:32.808Z,100.00
2023-01-26T20:39:01.181Z,100.00
2023-01-26T20:41:30.049Z,100.00
2023-01-26T20:44:00.879Z,100.00
2023-01-26T20:46:29.467Z,100.00
2023-01-26T20:48:57.245Z,100.00
2023-01-26T20:51:29.277Z,100.00
2023-01-26T20:53:58.451Z,100.00
2023-01-26T20:56:26.305Z,100.00
2023-01-26T20:58:55.181Z,100.00
2023-01-26T21:01:23.679Z,100.00
2023-01-26T21:03:51.450Z,100.00
2023-01-26T21:06:20.003Z,100.00
2023-01-26T21:08:47.734Z,100.00
2023-01-26T21:11:18.094Z,100.00
2023-01-26T21:13:45.619Z,100.00
2023-01-26T21:16:14.515Z,100.00
2023-01-26T21:18:42.435Z,100.00
2023-01-26T21:21:12.315Z,100.00
2023-01-26T21:23:39.769Z,100.00
2023-01-26T21:26:10.715Z,100.00
2023-01-26T21:28:39.604Z,100.00
2023-01-26T21:31:08.722Z,100.00
2023-01-26T21:33:38.230Z,100.00
2023-01-26T21:36:07.234Z,100.00
2023-01-26T21:38:36.056Z,100.00
2023-01-26T21:41:25.281Z,100.00
2023-01-26T21:43:56.789Z,100.00
2023-01-26T21:46:24.466Z,100.00
2023-01-26T21:48:51.906Z,100.00
2023-01-26T21:51:37.813Z,100.00
2023-01-26T21:54:06.832Z,100.00
2023-01-26T21:56:34.375Z,100.00
2023-01-26T21:59:04.611Z,100.00
2023-01-26T22:01:33.579Z,100.00
2023-01-26T22:04:02.514Z,100.00
2023-01-26T22:06:30.831Z,100.00
2023-01-26T22:08:59.097Z,100.00
2023-01-26T22:11:27.091Z,100.00
2023-01-26T22:13:54.860Z,100.00
2023-01-26T22:16:24.150Z,100.00
2023-01-26T22:18:51.737Z,100.00
2023-01-26T22:21:19.583Z,100.00
2023-01-26T22:23:47.288Z,100.00
2023-01-26T22:26:16.355Z,100.00
2023-01-26T22:28:49.973Z,100.00
2023-01-26T22:31:19.605Z,100.00
2023-01-26T22:33:48.463Z,100.00
2023-01-26T22:36:16.946Z,100.00
2023-01-26T22:38:44.565Z,100.00
2023-01-26T22:41:14.498Z,100.00
2023-01-26T22:43:42.221Z,100.00
2023-01-26T22:46:11.435Z,100.00
2023-01-26T22:48:39.134Z,100.00
2023-01-26T22:51:12.046Z,100.00
2023-01-26T22:53:39.884Z,100.00
2023-01-26T22:56:08.508Z,100.00
2023-01-26T22:58:44.787Z,100.00
2023-01-26T23:01:23.697Z,100.00
2023-01-26T23:03:51.694Z,100.00
2023-01-26T23:06:21.216Z,100.00
2023-01-26T23:08:48.717Z,100.00
2023-01-26T23:11:17.619Z,100.00
2023-01-26T23:13:45.928Z,100.00
2023-01-26T23:16:13.800Z,100.00
2023-01-26T23:18:42.021Z,100.00
2023-01-26T23:21:10.358Z,100.00
2023-01-26T23:23:39.968Z,100.00
2023-01-26T23:26:07.605Z,100.00
2023-01-26T23:28:36.858Z,100.00
2023-01-26T23:31:04.452Z,100.00
2023-01-26T23:33:33.358Z,100.00
2023-01-26T23:36:00.872Z,100.00
2023-01-26T23:38:29.508Z,100.00
2023-01-26T23:41:00.323Z,100.00
2023-01-26T23:43:27.963Z,100.00
2023-01-26T23:45:56.388Z,100.00
2023-01-26T23:48:24.467Z,100.00
2023-01-26T23:50:56.094Z,100.00
2023-01-26T23:53:24.047Z,100.00
2023-01-26T23:55:51.601Z,100.00
2023-01-26T23:58:20.803Z,100.00
